createdAt,value
2018-12-03T00:02:06.025Z,3.67
2018-12-03T00:04:34.007Z,4.83
2018-12-03T00:07:01.493Z,4.67
2018-12-03T00:09:29.033Z,4.43
2018-12-03T00:11:56.538Z,6.00
2018-12-03T00:14:23.980Z,4.73
2018-12-03T00:16:51.563Z,4.87
2018-12-03T00:19:18.981Z,5.20
2018-12-03T00:21:47.490Z,4.07
2018-12-03T00:24:15.120Z,4.47
2018-12-03T00:26:42.642Z,4.77
2018-12-03T00:29:10.124Z,3.83
2018-12-03T00:31:37.624Z,5.10
2018-12-03T00:34:05.304Z,5.17
2018-12-03T00:36:32.781Z,4.53
2018-12-03T00:39:00.323Z,4.30
2018-12-03T00:41:29.200Z,4.93
2018-12-03T00:43:56.871Z,4.40
2018-12-03T00:46:24.415Z,4.70
2018-12-03T00:48:52.015Z,4.73
2018-12-03T00:51:19.515Z,5.10
2018-12-03T00:53:47.019Z,3.90
2018-12-03T00:56:14.500Z,4.30
2018-12-03T00:58:42.031Z,3.77
2018-12-03T01:01:09.478Z,4.40
2018-12-03T01:03:36.970Z,4.73
2018-12-03T01:06:04.980Z,4.10
2018-12-03T01:08:32.443Z,4.77
2018-12-03T01:10:59.964Z,4.50
2018-12-03T01:13:27.435Z,4.13
2018-12-03T01:15:54.931Z,4.63
2018-12-03T01:18:22.470Z,4.50
2018-12-03T01:20:50.071Z,4.43
2018-12-03T01:23:17.506Z,4.27
2018-12-03T01:25:45.034Z,4.03
2018-12-03T01:28:12.563Z,3.60
2018-12-03T01:30:40.383Z,3.70
2018-12-03T01:33:07.951Z,4.00
2018-12-03T01:35:35.431Z,3.80
2018-12-03T01:38:02.961Z,4.43
2018-12-03T01:40:30.493Z,3.90
2018-12-03T01:42:57.986Z,3.57
2018-12-03T01:45:25.440Z,4.17
2018-12-03T01:47:53.011Z,4.37
2018-12-03T01:50:21.146Z,3.57
2018-12-03T01:52:48.552Z,3.67
2018-12-03T01:55:16.046Z,3.37
2018-12-03T01:57:44.169Z,4.07
2018-12-03T02:00:12.504Z,3.93
2018-12-03T02:02:39.987Z,4.03
2018-12-03T02:05:08.022Z,4.53
2018-12-03T02:07:36.325Z,4.77
2018-12-03T02:10:04.303Z,3.83
2018-12-03T02:12:31.760Z,4.10
2018-12-03T02:14:59.223Z,4.37
2018-12-03T02:17:26.707Z,3.77
2018-12-03T02:19:54.198Z,4.53
2018-12-03T02:22:21.783Z,4.60
2018-12-03T02:24:49.218Z,4.90
2018-12-03T02:27:16.909Z,4.67
2018-12-03T02:29:44.351Z,4.33
2018-12-03T02:32:11.836Z,4.37
2018-12-03T02:34:39.331Z,3.77
2018-12-03T02:37:07.305Z,4.00
2018-12-03T02:39:34.861Z,5.20
2018-12-03T02:42:02.371Z,4.47
2018-12-03T02:44:30.679Z,4.97
2018-12-03T02:46:58.192Z,4.63
2018-12-03T02:49:25.560Z,4.33
2018-12-03T02:51:53.123Z,4.70
2018-12-03T02:54:20.652Z,4.03
2018-12-03T02:56:48.156Z,4.53
2018-12-03T02:59:15.675Z,4.23
2018-12-03T03:01:43.101Z,4.97
2018-12-03T03:04:10.579Z,4.93
2018-12-03T03:06:38.341Z,5.07
2018-12-03T03:09:07.618Z,4.07
2018-12-03T03:11:35.130Z,4.60
2018-12-03T03:14:02.535Z,4.63
2018-12-03T03:16:29.973Z,4.70
2018-12-03T03:18:57.474Z,5.47
2018-12-03T03:21:24.961Z,5.17
2018-12-03T03:23:52.482Z,5.23
2018-12-03T03:26:19.929Z,5.37
2018-12-03T03:28:47.448Z,4.47
2018-12-03T03:31:14.979Z,3.87
2018-12-03T03:33:42.396Z,3.87
2018-12-03T03:36:09.854Z,4.50
2018-12-03T03:38:37.328Z,3.73
2018-12-03T03:41:04.800Z,4.10
2018-12-03T03:43:32.250Z,3.60
2018-12-03T03:45:59.699Z,3.37
2018-12-03T03:48:27.136Z,4.63
2018-12-03T03:50:54.596Z,4.40
2018-12-03T03:53:22.056Z,4.83
2018-12-03T03:55:49.506Z,4.90
2018-12-03T03:58:16.943Z,5.13
2018-12-03T04:00:44.394Z,5.00
2018-12-03T04:03:11.865Z,5.53
2018-12-03T04:05:39.332Z,6.03
2018-12-03T04:08:07.013Z,6.00
2018-12-03T04:10:35.337Z,4.87
2018-12-03T04:13:02.799Z,4.57
2018-12-03T04:15:30.295Z,4.60
2018-12-03T04:17:57.850Z,4.30
2018-12-03T04:20:25.312Z,5.77
2018-12-03T04:22:53.593Z,6.00
2018-12-03T04:25:20.985Z,4.67
2018-12-03T04:27:48.672Z,5.83
2018-12-03T04:30:17.699Z,5.50
2018-12-03T04:32:45.158Z,6.17
2018-12-03T04:35:12.762Z,6.00
2018-12-03T04:37:40.369Z,5.97
2018-12-03T04:40:11.229Z,6.13
2018-12-03T04:42:38.709Z,6.07
2018-12-03T04:45:07.625Z,5.27
2018-12-03T04:47:35.129Z,6.03
2018-12-03T04:50:02.582Z,6.10
2018-12-03T04:52:30.012Z,5.43
2018-12-03T04:54:57.447Z,5.40
2018-12-03T04:57:24.878Z,5.80
2018-12-03T04:59:52.330Z,6.93
2018-12-03T05:02:19.815Z,6.57
2018-12-03T05:04:48.044Z,5.53
2018-12-03T05:07:16.262Z,6.17
2018-12-03T05:09:43.821Z,5.20
2018-12-03T05:12:11.275Z,4.90
2018-12-03T05:14:38.834Z,5.97
2018-12-03T05:17:06.364Z,5.50
2018-12-03T05:19:33.812Z,6.10
2018-12-03T05:22:01.264Z,6.77
2018-12-03T05:24:28.770Z,6.17
2018-12-03T05:26:56.178Z,6.00
2018-12-03T05:29:23.655Z,6.90
2018-12-03T05:31:51.811Z,6.00
2018-12-03T05:34:19.387Z,6.33
2018-12-03T05:36:46.836Z,5.63
2018-12-03T05:39:14.319Z,6.23
2018-12-03T05:41:41.785Z,6.77
2018-12-03T05:44:09.232Z,5.80
2018-12-03T05:46:36.652Z,6.57
2018-12-03T05:49:04.229Z,5.87
2018-12-03T05:51:31.767Z,6.03
2018-12-03T05:53:59.243Z,6.40
2018-12-03T05:56:26.783Z,6.47
2018-12-03T05:58:54.261Z,5.60
2018-12-03T06:01:21.766Z,6.30
2018-12-03T06:03:49.315Z,6.87
2018-12-03T06:06:16.842Z,5.67
2018-12-03T06:08:44.434Z,6.27
2018-12-03T06:11:11.964Z,5.60
2018-12-03T06:13:39.472Z,5.27
2018-12-03T06:16:07.039Z,5.23
2018-12-03T06:18:35.529Z,5.37
2018-12-03T06:21:03.009Z,5.97
2018-12-03T06:23:30.471Z,5.20
2018-12-03T06:25:57.944Z,5.77
2018-12-03T06:28:25.507Z,5.30
2018-12-03T06:30:52.944Z,5.83
2018-12-03T06:33:20.531Z,6.33
2018-12-03T06:35:48.000Z,6.43
2018-12-03T06:38:15.596Z,6.27
2018-12-03T06:40:42.973Z,5.97
2018-12-03T06:43:10.428Z,6.40
2018-12-03T06:45:38.101Z,5.87
2018-12-03T06:48:11.754Z,6.30
2018-12-03T06:50:39.485Z,5.60
2018-12-03T06:53:06.910Z,5.97
2018-12-03T06:55:34.333Z,6.17
2018-12-03T06:58:01.829Z,6.83
2018-12-03T07:00:29.412Z,5.73
2018-12-03T07:02:56.923Z,5.07
2018-12-03T07:05:24.672Z,6.00
2018-12-03T07:07:54.100Z,6.83
2018-12-03T07:10:22.147Z,5.50
2018-12-03T07:12:51.448Z,6.17
2018-12-03T07:15:19.528Z,7.23
2018-12-03T07:17:47.300Z,6.60
2018-12-03T07:20:14.767Z,6.73
2018-12-03T07:22:42.352Z,6.73
2018-12-03T07:25:10.165Z,6.23
2018-12-03T07:27:37.647Z,6.73
2018-12-03T07:30:09.135Z,6.80
2018-12-03T07:32:36.535Z,7.07
2018-12-03T07:35:04.528Z,7.50
2018-12-03T07:37:32.055Z,6.73
2018-12-03T07:39:59.498Z,7.47
2018-12-03T07:42:27.067Z,5.93
2018-12-03T07:44:54.492Z,6.50
2018-12-03T07:47:21.901Z,6.40
2018-12-03T07:49:49.313Z,6.87
2018-12-03T07:52:16.928Z,6.90
2018-12-03T07:54:44.432Z,6.23
2018-12-03T07:57:11.904Z,5.80
2018-12-03T07:59:39.371Z,6.57
2018-12-03T08:02:06.960Z,5.50
2018-12-03T08:04:34.411Z,6.60
2018-12-03T08:07:01.933Z,6.53
2018-12-03T08:09:29.436Z,6.97
2018-12-03T08:11:56.913Z,7.07
2018-12-03T08:14:24.355Z,6.73
2018-12-03T08:16:52.638Z,7.63
2018-12-03T08:19:20.083Z,7.70
2018-12-03T08:21:47.972Z,8.80
2018-12-03T08:24:15.200Z,7.23
2018-12-03T08:26:42.668Z,7.80
2018-12-03T08:29:10.121Z,8.00
2018-12-03T08:31:37.590Z,7.63
2018-12-03T08:34:05.137Z,7.87
2018-12-03T08:36:32.718Z,7.03
2018-12-03T08:39:00.306Z,7.30
2018-12-03T08:41:27.790Z,6.30
2018-12-03T08:43:55.259Z,7.37
2018-12-03T08:46:22.767Z,7.10
2018-12-03T08:48:50.305Z,6.03
2018-12-03T08:51:17.844Z,6.60
2018-12-03T08:53:46.014Z,7.03
2018-12-03T08:56:13.503Z,6.77
2018-12-03T08:58:41.049Z,6.67
2018-12-03T09:01:11.676Z,5.93
2018-12-03T09:03:39.489Z,5.70
2018-12-03T09:06:08.618Z,5.60
2018-12-03T09:08:36.219Z,5.10
2018-12-03T09:11:03.743Z,5.73
2018-12-03T09:13:31.200Z,5.17
2018-12-03T09:16:00.317Z,6.07
2018-12-03T09:18:30.928Z,5.30
2018-12-03T09:20:58.674Z,5.43
2018-12-03T09:23:26.131Z,5.23
2018-12-03T09:25:53.597Z,6.77
2018-12-03T09:28:21.139Z,5.60
2018-12-03T09:30:48.618Z,5.63
2018-12-03T09:33:16.045Z,6.33
2018-12-03T09:35:43.507Z,6.10
2018-12-03T09:38:11.067Z,5.73
2018-12-03T09:40:38.679Z,5.63
2018-12-03T09:43:06.180Z,6.27
2018-12-03T09:45:33.676Z,6.07
2018-12-03T09:48:01.095Z,6.77
2018-12-03T09:50:29.036Z,7.17
2018-12-03T09:53:28.761Z,6.60
2018-12-03T09:55:56.267Z,8.47
2018-12-03T09:58:23.948Z,8.57
2018-12-03T10:00:51.490Z,7.37
2018-12-03T10:03:22.018Z,7.13
2018-12-03T10:05:53.533Z,7.57
2018-12-03T10:08:23.846Z,7.13
2018-12-03T10:10:53.594Z,7.80
2018-12-03T10:13:21.071Z,7.60
2018-12-03T10:15:48.520Z,6.93
2018-12-03T10:18:15.977Z,8.33
2018-12-03T10:20:46.731Z,7.90
2018-12-03T10:23:14.156Z,7.53
2018-12-03T10:25:42.330Z,7.50
2018-12-03T10:28:09.738Z,7.73
2018-12-03T10:30:37.240Z,6.90
2018-12-03T10:33:04.985Z,8.37
2018-12-03T10:35:33.339Z,7.57
2018-12-03T10:38:05.072Z,7.30
2018-12-03T10:40:32.707Z,6.23
2018-12-03T10:43:00.268Z,7.30
2018-12-03T10:45:27.666Z,6.37
2018-12-03T10:47:56.299Z,6.90
2018-12-03T10:50:23.759Z,6.83
2018-12-03T10:52:51.338Z,8.13
2018-12-03T10:55:18.839Z,7.53
2018-12-03T10:57:46.360Z,7.23
2018-12-03T11:00:20.101Z,6.37
2018-12-03T11:02:52.908Z,6.07
2018-12-03T11:05:26.996Z,6.57
2018-12-03T11:07:54.403Z,6.77
2018-12-03T11:10:21.947Z,7.50
2018-12-03T11:12:50.092Z,6.87
2018-12-03T11:15:18.334Z,7.10
2018-12-03T11:17:45.753Z,6.87
2018-12-03T11:20:13.258Z,6.73
2018-12-03T11:22:40.703Z,6.13
2018-12-03T11:25:10.310Z,6.80
2018-12-03T11:27:38.325Z,6.50
2018-12-03T11:30:07.343Z,6.93
2018-12-03T11:32:34.778Z,8.23
2018-12-03T11:35:05.824Z,6.23
2018-12-03T11:37:31.600Z,7.60
2018-12-03T11:40:03.690Z,6.30
2018-12-03T11:42:32.618Z,7.27
2018-12-03T11:45:00.055Z,6.37
2018-12-03T11:47:27.474Z,6.07
2018-12-03T11:49:54.910Z,6.23
2018-12-03T11:52:22.352Z,7.90
2018-12-03T11:54:49.764Z,6.67
2018-12-03T11:57:17.187Z,6.00
2018-12-03T11:59:44.609Z,6.20
2018-12-03T12:02:12.042Z,6.33
2018-12-03T12:04:39.472Z,6.70
2018-12-03T12:07:06.997Z,6.00
2018-12-03T12:09:34.455Z,6.70
2018-12-03T12:12:01.866Z,6.03
2018-12-03T12:14:29.344Z,6.63
2018-12-03T12:16:56.872Z,5.70
2018-12-03T12:19:24.553Z,5.27
2018-12-03T12:21:52.042Z,6.07
2018-12-03T12:24:19.416Z,5.67
2018-12-03T12:26:46.995Z,5.00
2018-12-03T12:29:14.574Z,5.97
2018-12-03T12:31:42.017Z,5.70
2018-12-03T12:34:09.791Z,4.87
2018-12-03T12:36:37.237Z,4.73
2018-12-03T12:39:07.128Z,4.83
2018-12-03T12:41:34.681Z,4.90
2018-12-03T12:44:02.205Z,4.63
2018-12-03T12:46:30.202Z,5.03
2018-12-03T12:48:57.679Z,5.63
2018-12-03T12:51:25.117Z,4.90
2018-12-03T12:53:52.603Z,4.30
2018-12-03T12:56:20.144Z,4.53
2018-12-03T12:58:47.545Z,5.43
2018-12-03T13:01:14.975Z,5.33
2018-12-03T13:03:42.365Z,4.93
2018-12-03T13:06:09.848Z,4.43
2018-12-03T13:08:37.574Z,5.67
2018-12-03T13:11:05.115Z,5.10
2018-12-03T13:13:32.671Z,5.03
2018-12-03T13:16:00.166Z,4.60
2018-12-03T13:18:27.619Z,4.27
2018-12-03T13:20:55.037Z,4.10
2018-12-03T13:23:22.496Z,4.37
2018-12-03T13:25:50.005Z,5.17
2018-12-03T13:28:17.520Z,5.43
2018-12-03T13:30:45.015Z,5.37
2018-12-03T13:33:12.483Z,4.73
2018-12-03T13:35:40.013Z,5.40
2018-12-03T13:38:07.465Z,5.70
2018-12-03T13:40:34.992Z,5.40
2018-12-03T13:43:02.461Z,6.23
2018-12-03T13:45:30.783Z,6.20
2018-12-03T13:47:59.367Z,6.40
2018-12-03T13:50:26.853Z,6.70
2018-12-03T13:52:54.254Z,7.10
2018-12-03T13:55:21.821Z,6.53
2018-12-03T13:57:49.258Z,6.47
2018-12-03T14:00:17.414Z,5.93
2018-12-03T14:02:46.096Z,6.93
2018-12-03T14:05:14.168Z,6.07
2018-12-03T14:07:46.321Z,6.40
2018-12-03T14:10:32.116Z,7.10
2018-12-03T14:13:03.786Z,6.30
2018-12-03T14:15:40.277Z,5.77
2018-12-03T14:18:10.989Z,5.67
2018-12-03T14:20:40.217Z,6.57
2018-12-03T14:23:11.841Z,6.03
2018-12-03T14:25:39.312Z,6.03
2018-12-03T14:28:06.842Z,6.10
2018-12-03T14:30:34.321Z,5.80
2018-12-03T14:33:01.771Z,6.57
2018-12-03T14:35:29.198Z,5.70
2018-12-03T14:37:56.705Z,6.73
2018-12-03T14:40:24.190Z,6.40
2018-12-03T14:42:51.609Z,6.33
2018-12-03T14:45:19.070Z,6.83
2018-12-03T14:47:46.567Z,6.07
2018-12-03T14:50:15.007Z,6.43
2018-12-03T14:52:42.497Z,6.23
2018-12-03T14:55:09.942Z,6.07
2018-12-03T14:57:37.930Z,6.03
2018-12-03T15:00:08.551Z,5.60
2018-12-03T15:02:35.983Z,6.33
2018-12-03T15:05:03.655Z,6.57
2018-12-03T15:07:31.047Z,6.77
2018-12-03T15:09:58.455Z,7.13
2018-12-03T15:12:25.862Z,7.30
2018-12-03T15:14:53.299Z,7.10
2018-12-03T15:17:20.790Z,7.43
2018-12-03T15:19:48.283Z,8.33
2018-12-03T15:22:15.704Z,8.40
2018-12-03T15:24:43.093Z,7.83
2018-12-03T15:27:10.627Z,7.77
2018-12-03T15:29:38.146Z,7.53
2018-12-03T15:32:05.606Z,8.30
2018-12-03T15:34:33.034Z,8.20
2018-12-03T15:37:00.458Z,7.27
2018-12-03T15:39:27.989Z,7.83
2018-12-03T15:41:55.862Z,8.07
2018-12-03T15:44:23.469Z,7.43
2018-12-03T15:46:50.888Z,8.60
2018-12-03T15:49:18.381Z,8.50
2018-12-03T15:51:45.812Z,8.97
2018-12-03T15:54:13.850Z,7.73
2018-12-03T15:56:41.278Z,8.03
2018-12-03T15:59:08.893Z,9.63
2018-12-03T16:01:36.307Z,9.00
2018-12-03T16:04:04.537Z,8.63
2018-12-03T16:06:31.956Z,8.77
2018-12-03T16:08:59.437Z,8.27
2018-12-03T16:11:26.888Z,9.00
2018-12-03T16:13:54.294Z,9.10
2018-12-03T16:16:22.413Z,8.40
2018-12-03T16:18:49.968Z,9.80
2018-12-03T16:21:18.452Z,9.67
2018-12-03T16:23:46.223Z,9.47
2018-12-03T16:26:14.467Z,8.83
2018-12-03T16:28:41.972Z,8.20
2018-12-03T16:31:14.068Z,9.93
2018-12-03T16:33:41.533Z,8.83
2018-12-03T16:36:08.986Z,9.00
2018-12-03T16:38:40.612Z,9.17
2018-12-03T16:41:08.890Z,9.13
2018-12-03T16:43:37.534Z,8.27
2018-12-03T16:46:05.131Z,8.43
2018-12-03T16:48:34.326Z,9.10
2018-12-03T16:51:01.850Z,9.37
2018-12-03T16:53:29.270Z,8.50
2018-12-03T16:55:56.763Z,8.43
2018-12-03T16:58:24.936Z,8.53
2018-12-03T17:00:52.621Z,8.30
2018-12-03T17:03:20.196Z,7.63
2018-12-03T17:05:48.238Z,8.13
2018-12-03T17:08:15.702Z,8.17
2018-12-03T17:10:43.329Z,6.50
2018-12-03T17:13:10.762Z,7.03
2018-12-03T17:15:38.247Z,6.43
2018-12-03T17:18:05.761Z,7.37
2018-12-03T17:20:38.752Z,6.10
2018-12-03T17:24:11.683Z,6.37
2018-12-03T17:26:39.562Z,7.10
2018-12-03T17:29:07.409Z,5.37
2018-12-03T17:31:35.672Z,6.00
2018-12-03T17:34:03.265Z,6.10
2018-12-03T17:36:32.032Z,6.37
2018-12-03T17:38:59.591Z,6.27
2018-12-03T17:41:28.072Z,5.80
2018-12-03T17:43:56.939Z,4.47
2018-12-03T17:46:24.452Z,5.43
2018-12-03T17:48:51.916Z,5.60
2018-12-03T17:51:20.028Z,5.13
2018-12-03T17:53:47.461Z,5.97
2018-12-03T17:56:14.924Z,5.63
2018-12-03T17:58:42.481Z,4.63
2018-12-03T18:01:10.020Z,4.80
2018-12-03T18:03:37.502Z,4.03
2018-12-03T18:06:05.288Z,4.17
2018-12-03T18:08:32.914Z,4.30
2018-12-03T18:11:00.997Z,3.83
2018-12-03T18:13:28.886Z,4.63
2018-12-03T18:15:56.441Z,4.43
2018-12-03T18:18:26.837Z,4.37
2018-12-03T18:20:54.356Z,4.10
2018-12-03T18:23:22.604Z,4.70
2018-12-03T18:25:50.253Z,3.83
2018-12-03T18:28:17.749Z,4.27
2018-12-03T18:30:45.205Z,3.30
2018-12-03T18:33:12.632Z,3.60
2018-12-03T18:35:40.031Z,3.27
2018-12-03T18:38:07.475Z,3.40
2018-12-03T18:40:35.065Z,3.93
2018-12-03T18:43:02.604Z,3.43
2018-12-03T18:45:30.068Z,2.83
2018-12-03T18:47:57.630Z,2.43
2018-12-03T18:50:28.077Z,3.00
2018-12-03T18:52:55.597Z,3.20
2018-12-03T18:55:24.938Z,3.00
2018-12-03T18:58:00.823Z,3.47
2018-12-03T19:00:28.893Z,2.73
2018-12-03T19:02:56.960Z,3.40
2018-12-03T19:05:24.765Z,3.17
2018-12-03T19:07:54.312Z,3.50
2018-12-03T19:10:21.941Z,3.00
2018-12-03T19:12:49.491Z,2.50
2018-12-03T19:15:17.197Z,3.27
2018-12-03T19:17:44.757Z,3.70
2018-12-03T19:20:12.180Z,2.40
2018-12-03T19:22:39.820Z,2.90
2018-12-03T19:25:08.015Z,2.83
2018-12-03T19:27:35.535Z,3.10
2018-12-03T19:30:03.025Z,2.33
2018-12-03T19:32:30.824Z,2.60
2018-12-03T19:34:58.485Z,2.30
2018-12-03T19:37:25.907Z,2.33
2018-12-03T19:39:53.317Z,2.20
2018-12-03T19:42:20.804Z,2.20
2018-12-03T19:44:48.246Z,2.10
2018-12-03T19:47:15.734Z,1.90
2018-12-03T19:49:43.666Z,1.87
2018-12-03T19:52:11.989Z,1.43
2018-12-03T19:54:39.876Z,1.77
2018-12-03T19:57:07.970Z,2.30
2018-12-03T19:59:37.992Z,2.37
2018-12-03T20:02:05.567Z,2.10
2018-12-03T20:04:39.432Z,1.60
2018-12-03T20:07:07.890Z,2.13
2018-12-03T20:09:36.047Z,2.07
2018-12-03T20:12:07.902Z,2.40
2018-12-03T20:14:35.506Z,2.20
2018-12-03T20:17:03.040Z,1.87
2018-12-03T20:19:30.649Z,2.20
2018-12-03T20:21:58.382Z,1.93
2018-12-03T20:24:26.727Z,2.53
2018-12-03T20:27:04.706Z,1.93
2018-12-03T20:29:35.760Z,1.97
2018-12-03T20:32:09.092Z,1.90
2018-12-03T20:34:40.456Z,2.50
2018-12-03T20:37:31.405Z,1.70
2018-12-03T20:40:02.741Z,2.13
2018-12-03T20:42:33.493Z,1.87
2018-12-03T20:45:06.665Z,1.80
2018-12-03T20:47:36.503Z,1.80
2018-12-03T20:50:25.646Z,2.00
2018-12-03T20:52:53.423Z,1.70
2018-12-03T20:55:23.058Z,1.23
2018-12-03T20:57:50.596Z,1.10
2018-12-03T21:00:19.220Z,0.87
2018-12-03T21:02:47.020Z,1.17
2018-12-03T21:05:14.809Z,1.40
2018-12-03T21:07:43.059Z,1.30
2018-12-03T21:10:11.734Z,1.80
2018-12-03T21:12:39.264Z,1.93
2018-12-03T21:15:07.335Z,1.87
2018-12-03T21:17:40.631Z,1.73
2018-12-03T21:20:11.952Z,1.73
2018-12-03T21:22:39.593Z,1.53
2018-12-03T21:25:07.171Z,2.07
2018-12-03T21:27:34.668Z,1.80
2018-12-03T21:30:04.378Z,1.50
2018-12-03T21:32:33.012Z,2.13
2018-12-03T21:35:00.561Z,2.00
2018-12-03T21:37:32.845Z,2.07
2018-12-03T21:40:00.846Z,1.57
2018-12-03T21:42:28.426Z,1.73
2018-12-03T21:44:57.357Z,1.60
2018-12-03T21:47:25.002Z,1.47
2018-12-03T21:49:52.705Z,1.67
2018-12-03T21:52:20.887Z,1.50
2018-12-03T21:54:49.256Z,1.90
2018-12-03T21:57:16.840Z,1.23
2018-12-03T21:59:46.265Z,1.60
2018-12-03T22:02:14.099Z,1.23
2018-12-03T22:04:41.553Z,1.03
2018-12-03T22:07:09.350Z,1.33
2018-12-03T22:09:37.450Z,1.50
2018-12-03T22:12:04.894Z,1.60
2018-12-03T22:14:33.682Z,1.17
2018-12-03T22:17:01.256Z,0.87
2018-12-03T22:19:28.781Z,1.40
2018-12-03T22:21:56.186Z,1.30
2018-12-03T22:24:23.723Z,2.10
2018-12-03T22:26:51.185Z,1.50
2018-12-03T22:29:18.643Z,1.30
2018-12-03T22:31:46.088Z,1.97
2018-12-03T22:34:13.664Z,1.73
2018-12-03T22:36:41.159Z,1.70
2018-12-03T22:39:08.668Z,1.90
2018-12-03T22:41:36.088Z,1.30
2018-12-03T22:44:03.639Z,1.63
2018-12-03T22:46:31.056Z,1.13
2018-12-03T22:48:58.501Z,1.77
2018-12-03T22:51:26.038Z,1.67
2018-12-03T22:53:53.663Z,1.63
2018-12-03T22:56:21.101Z,2.40
2018-12-03T22:58:48.766Z,1.17
2018-12-03T23:01:21.325Z,1.80
2018-12-03T23:03:48.811Z,1.30
2018-12-03T23:06:16.308Z,2.00
2018-12-03T23:08:43.871Z,1.70
2018-12-03T23:11:11.491Z,1.60
2018-12-03T23:13:39.044Z,1.30
2018-12-03T23:16:06.544Z,1.87
2018-12-03T23:18:33.966Z,2.80
2018-12-03T23:21:01.570Z,1.60
2018-12-03T23:23:29.038Z,1.40
2018-12-03T23:25:56.452Z,2.27
2018-12-03T23:28:24.339Z,2.00
2018-12-03T23:30:51.863Z,1.60
2018-12-03T23:33:19.325Z,1.93
2018-12-03T23:35:46.831Z,2.10
2018-12-03T23:38:14.959Z,2.10
2018-12-03T23:40:42.405Z,1.87
2018-12-03T23:43:09.890Z,2.17
2018-12-03T23:45:37.329Z,2.50
2018-12-03T23:48:04.827Z,2.57
2018-12-03T23:50:32.231Z,2.20
2018-12-03T23:52:59.732Z,1.63
2018-12-03T23:55:27.246Z,2.30
2018-12-03T23:57:54.731Z,1.83
